sensor_id;sensor_type;location;lat;lon;timestamp;temperature;humidity
34837;DHT22;21053;50.848;4.652;2024-02-28T00:03:33;3.00;99.90
34837;DHT22;21053;50.848;4.652;2024-02-28T00:06:00;3.10;99.90
34837;DHT22;21053;50.848;4.652;2024-02-28T00:08:29;3.00;99.90
34837;DHT22;21053;50.848;4.652;2024-02-28T00:10:55;2.90;99.90
34837;DHT22;21053;50.848;4.652;2024-02-28T00:13:23;2.90;99.90
34837;DHT22;21053;50.848;4.652;2024-02-28T00:15:52;3.00;99.90
34837;DHT22;21053;50.848;4.652;2024-02-28T00:18:20;2.80;99.90
34837;DHT22;21053;50.848;4.652;2024-02-28T00:20:46;2.70;99.90
34837;DHT22;21053;50.848;4.652;2024-02-28T00:23:13;2.80;99.90
34837;DHT22;21053;50.848;4.652;2024-02-28T00:25:42;2.80;99.90
34837;DHT22;21053;50.848;4.652;2024-02-28T00:28:11;2.90;99.90
34837;DHT22;21053;50.848;4.652;2024-02-28T00:30:39;2.80;99.90
34837;DHT22;21053;50.848;4.652;2024-02-28T00:33:09;2.80;99.90
34837;DHT22;21053;50.848;4.652;2024-02-28T00:35:36;2.80;99.90
34837;DHT22;21053;50.848;4.652;2024-02-28T00:38:04;2.90;99.90
34837;DHT22;21053;50.848;4.652;2024-02-28T00:40:32;2.90;99.90
34837;DHT22;21053;50.848;4.652;2024-02-28T00:43:01;2.90;99.90
34837;DHT22;21053;50.848;4.652;2024-02-28T00:45:30;2.90;99.90
34837;DHT22;21053;50.848;4.652;2024-02-28T00:47:59;2.90;99.90
34837;DHT22;21053;50.848;4.652;2024-02-28T00:50:26;2.90;99.90
34837;DHT22;21053;50.848;4.652;2024-02-28T00:52:54;2.90;99.90
34837;DHT22;21053;50.848;4.652;2024-02-28T00:55:21;2.90;99.90
34837;DHT22;21053;50.848;4.652;2024-02-28T00:57:53;2.90;99.90
34837;DHT22;21053;50.848;4.652;2024-02-28T01:00:22;2.90;99.90
34837;DHT22;21053;50.848;4.652;2024-02-28T01:02:50;2.80;99.90
34837;DHT22;21053;50.848;4.652;2024-02-28T01:05:17;2.80;99.90
34837;DHT22;21053;50.848;4.652;2024-02-28T01:07:49;2.90;99.90
34837;DHT22;21053;50.848;4.652;2024-02-28T01:10:16;2.90;99.90
34837;DHT22;21053;50.848;4.652;2024-02-28T01:12:44;2.90;99.90
34837;DHT22;21053;50.848;4.652;2024-02-28T01:15:11;2.90;99.90
34837;DHT22;21053;50.848;4.652;2024-02-28T01:17:40;2.90;99.90
34837;DHT22;21053;50.848;4.652;2024-02-28T01:20:06;2.80;99.90
34837;DHT22;21053;50.848;4.652;2024-02-28T01:22:35;2.80;99.90
34837;DHT22;21053;50.848;4.652;2024-02-28T01:25:04;2.80;99.90
34837;DHT22;21053;50.848;4.652;2024-02-28T01:27:31;2.90;99.90
34837;DHT22;21053;50.848;4.652;2024-02-28T01:30:00;2.90;99.90
34837;DHT22;21053;50.848;4.652;2024-02-28T01:32:28;3.90;99.90
34837;DHT22;21053;50.848;4.652;2024-02-28T01:34:55;3.00;99.90
34837;DHT22;21053;50.848;4.652;2024-02-28T01:37:22;3.00;99.90
34837;DHT22;21053;50.848;4.652;2024-02-28T01:39:49;2.90;99.90
34837;DHT22;21053;50.848;4.652;2024-02-28T01:42:18;2.90;99.90
34837;DHT22;21053;50.848;4.652;2024-02-28T01:44:48;2.90;99.90
34837;DHT22;21053;50.848;4.652;2024-02-28T01:47:19;2.90;99.90
34837;DHT22;21053;50.848;4.652;2024-02-28T01:49:48;2.70;99.90
34837;DHT22;21053;50.848;4.652;2024-02-28T01:52:19;2.70;99.90
34837;DHT22;21053;50.848;4.652;2024-02-28T01:54:46;2.70;99.90
34837;DHT22;21053;50.848;4.652;2024-02-28T01:57:26;2.70;99.90
34837;DHT22;21053;50.848;4.652;2024-02-28T01:59:55;2.60;99.90
34837;DHT22;21053;50.848;4.652;2024-02-28T02:02:25;2.70;99.90
34837;DHT22;21053;50.848;4.652;2024-02-28T02:04:53;2.70;99.90
34837;DHT22;21053;50.848;4.652;2024-02-28T02:07:20;2.60;99.90
34837;DHT22;21053;50.848;4.652;2024-02-28T02:09:49;2.60;99.90
34837;DHT22;21053;50.848;4.652;2024-02-28T02:12:21;2.70;99.90
34837;DHT22;21053;50.848;4.652;2024-02-28T02:14:50;2.60;99.90
34837;DHT22;21053;50.848;4.652;2024-02-28T02:17:19;2.60;99.90
34837;DHT22;21053;50.848;4.652;2024-02-28T02:19:46;2.70;99.90
34837;DHT22;21053;50.848;4.652;2024-02-28T02:22:14;2.50;99.90
34837;DHT22;21053;50.848;4.652;2024-02-28T02:24:41;2.50;99.90
34837;DHT22;21053;50.848;4.652;2024-02-28T02:27:08;2.50;99.90
34837;DHT22;21053;50.848;4.652;2024-02-28T02:29:37;2.50;99.90
34837;DHT22;21053;50.848;4.652;2024-02-28T02:32:06;2.50;99.90
34837;DHT22;21053;50.848;4.652;2024-02-28T02:34:34;2.50;99.90
34837;DHT22;21053;50.848;4.652;2024-02-28T02:39:14;2.40;99.90
34837;DHT22;21053;50.848;4.652;2024-02-28T02:41:39;2.50;99.90
34837;DHT22;21053;50.848;4.652;2024-02-28T02:44:08;2.50;99.90
34837;DHT22;21053;50.848;4.652;2024-02-28T02:46:34;2.50;99.90
34837;DHT22;21053;50.848;4.652;2024-02-28T02:49:01;2.60;99.90
34837;DHT22;21053;50.848;4.652;2024-02-28T02:53:59;2.60;99.90
34837;DHT22;21053;50.848;4.652;2024-02-28T02:56:28;2.40;99.90
34837;DHT22;21053;50.848;4.652;2024-02-28T02:58:57;2.40;99.90
34837;DHT22;21053;50.848;4.652;2024-02-28T03:01:22;2.50;99.90
34837;DHT22;21053;50.848;4.652;2024-02-28T03:03:51;2.40;99.90
34837;DHT22;21053;50.848;4.652;2024-02-28T03:06:21;2.40;99.90
34837;DHT22;21053;50.848;4.652;2024-02-28T03:08:52;2.40;99.90
34837;DHT22;21053;50.848;4.652;2024-02-28T03:11:21;2.30;99.90
34837;DHT22;21053;50.848;4.652;2024-02-28T03:13:47;2.10;99.90
34837;DHT22;21053;50.848;4.652;2024-02-28T03:16:15;2.20;99.90
34837;DHT22;21053;50.848;4.652;2024-02-28T03:18:44;2.20;99.90
34837;DHT22;21053;50.848;4.652;2024-02-28T03:21:13;2.20;99.90
34837;DHT22;21053;50.848;4.652;2024-02-28T03:23:39;2.20;99.90
34837;DHT22;21053;50.848;4.652;2024-02-28T03:26:07;3.40;99.90
34837;DHT22;21053;50.848;4.652;2024-02-28T03:28:36;3.10;99.90
34837;DHT22;21053;50.848;4.652;2024-02-28T03:31:05;2.20;99.90
34837;DHT22;21053;50.848;4.652;2024-02-28T03:33:31;2.10;99.90
34837;DHT22;21053;50.848;4.652;2024-02-28T03:36:00;2.10;99.90
34837;DHT22;21053;50.848;4.652;2024-02-28T03:38:28;2.00;99.90
34837;DHT22;21053;50.848;4.652;2024-02-28T03:40:54;2.10;99.90
34837;DHT22;21053;50.848;4.652;2024-02-28T03:43:22;2.10;99.90
34837;DHT22;21053;50.848;4.652;2024-02-28T03:45:48;2.00;99.90
34837;DHT22;21053;50.848;4.652;2024-02-28T03:48:16;2.10;99.90
34837;DHT22;21053;50.848;4.652;2024-02-28T03:50:45;2.00;99.90
34837;DHT22;21053;50.848;4.652;2024-02-28T03:53:11;2.00;99.90
34837;DHT22;21053;50.848;4.652;2024-02-28T03:55:43;1.90;99.90
34837;DHT22;21053;50.848;4.652;2024-02-28T03:58:13;1.80;99.90
34837;DHT22;21053;50.848;4.652;2024-02-28T04:00:43;1.90;99.90
34837;DHT22;21053;50.848;4.652;2024-02-28T04:03:12;1.90;99.90
34837;DHT22;21053;50.848;4.652;2024-02-28T04:05:40;1.90;99.90
34837;DHT22;21053;50.848;4.652;2024-02-28T04:08:12;1.90;99.90
34837;DHT22;21053;50.848;4.652;2024-02-28T04:10:41;1.90;99.90
34837;DHT22;21053;50.848;4.652;2024-02-28T04:13:09;1.90;99.90
34837;DHT22;21053;50.848;4.652;2024-02-28T04:15:38;1.90;99.90
34837;DHT22;21053;50.848;4.652;2024-02-28T04:18:07;1.90;99.90
34837;DHT22;21053;50.848;4.652;2024-02-28T04:20:33;1.80;99.90
34837;DHT22;21053;50.848;4.652;2024-02-28T04:23:00;1.80;99.90
34837;DHT22;21053;50.848;4.652;2024-02-28T04:25:27;1.90;99.90
34837;DHT22;21053;50.848;4.652;2024-02-28T04:27:56;1.80;99.90
34837;DHT22;21053;50.848;4.652;2024-02-28T04:30:25;1.70;99.90
34837;DHT22;21053;50.848;4.652;2024-02-28T04:32:54;1.70;99.90
34837;DHT22;21053;50.848;4.652;2024-02-28T04:35:23;1.80;99.90
34837;DHT22;21053;50.848;4.652;2024-02-28T04:37:51;1.60;99.90
34837;DHT22;21053;50.848;4.652;2024-02-28T04:40:20;3.90;99.90
34837;DHT22;21053;50.848;4.652;2024-02-28T04:42:49;1.70;99.90
34837;DHT22;21053;50.848;4.652;2024-02-28T04:45:15;1.80;99.90
34837;DHT22;21053;50.848;4.652;2024-02-28T04:47:42;1.70;99.90
34837;DHT22;21053;50.848;4.652;2024-02-28T04:50:15;1.80;99.90
34837;DHT22;21053;50.848;4.652;2024-02-28T04:52:40;1.70;99.90
34837;DHT22;21053;50.848;4.652;2024-02-28T04:55:12;1.80;99.90
34837;DHT22;21053;50.848;4.652;2024-02-28T04:57:40;1.70;99.90
34837;DHT22;21053;50.848;4.652;2024-02-28T05:00:08;1.80;99.90
34837;DHT22;21053;50.848;4.652;2024-02-28T05:02:36;1.70;99.90
34837;DHT22;21053;50.848;4.652;2024-02-28T05:05:03;1.60;99.90
34837;DHT22;21053;50.848;4.652;2024-02-28T05:07:36;1.60;99.90
34837;DHT22;21053;50.848;4.652;2024-02-28T05:10:06;1.60;99.90
34837;DHT22;21053;50.848;4.652;2024-02-28T05:12:35;1.70;99.90
34837;DHT22;21053;50.848;4.652;2024-02-28T05:15:01;1.70;99.90
34837;DHT22;21053;50.848;4.652;2024-02-28T05:17:28;1.70;99.90
34837;DHT22;21053;50.848;4.652;2024-02-28T05:19:55;1.70;99.90
34837;DHT22;21053;50.848;4.652;2024-02-28T05:22:23;1.70;99.90
34837;DHT22;21053;50.848;4.652;2024-02-28T05:24:52;1.70;99.90
34837;DHT22;21053;50.848;4.652;2024-02-28T05:27:20;1.60;99.90
34837;DHT22;21053;50.848;4.652;2024-02-28T05:29:46;1.50;99.90
34837;DHT22;21053;50.848;4.652;2024-02-28T05:32:15;1.60;99.90
34837;DHT22;21053;50.848;4.652;2024-02-28T05:34:45;1.60;99.90
34837;DHT22;21053;50.848;4.652;2024-02-28T05:37:11;1.50;99.90
34837;DHT22;21053;50.848;4.652;2024-02-28T05:39:40;1.40;99.90
34837;DHT22;21053;50.848;4.652;2024-02-28T05:42:22;1.40;99.90
34837;DHT22;21053;50.848;4.652;2024-02-28T05:44:51;1.30;99.90
34837;DHT22;21053;50.848;4.652;2024-02-28T05:47:17;1.40;99.90
34837;DHT22;21053;50.848;4.652;2024-02-28T05:49:45;1.40;99.90
34837;DHT22;21053;50.848;4.652;2024-02-28T05:52:14;1.40;99.90
34837;DHT22;21053;50.848;4.652;2024-02-28T05:54:40;1.50;99.90
34837;DHT22;21053;50.848;4.652;2024-02-28T05:57:09;1.40;99.90
34837;DHT22;21053;50.848;4.652;2024-02-28T05:59:38;1.40;99.90
34837;DHT22;21053;50.848;4.652;2024-02-28T06:02:06;1.50;99.90
34837;DHT22;21053;50.848;4.652;2024-02-28T06:04:32;1.50;99.90
34837;DHT22;21053;50.848;4.652;2024-02-28T06:06:59;1.80;99.90
34837;DHT22;21053;50.848;4.652;2024-02-28T06:09:27;1.70;99.90
34837;DHT22;21053;50.848;4.652;2024-02-28T06:11:55;1.70;99.90
34837;DHT22;21053;50.848;4.652;2024-02-28T06:14:24;1.70;99.90
34837;DHT22;21053;50.848;4.652;2024-02-28T06:16:51;1.70;99.90
34837;DHT22;21053;50.848;4.652;2024-02-28T06:19:19;1.70;99.90
34837;DHT22;21053;50.848;4.652;2024-02-28T06:21:46;1.70;99.90
34837;DHT22;21053;50.848;4.652;2024-02-28T06:24:15;4.30;99.90
34837;DHT22;21053;50.848;4.652;2024-02-28T06:26:42;1.70;99.90
34837;DHT22;21053;50.848;4.652;2024-02-28T06:29:11;1.70;99.90
34837;DHT22;21053;50.848;4.652;2024-02-28T06:31:40;1.80;99.90
34837;DHT22;21053;50.848;4.652;2024-02-28T06:34:09;1.80;99.90
34837;DHT22;21053;50.848;4.652;2024-02-28T06:36:37;1.80;99.90
34837;DHT22;21053;50.848;4.652;2024-02-28T06:39:06;1.90;99.90
34837;DHT22;21053;50.848;4.652;2024-02-28T06:41:41;2.00;99.90
34837;DHT22;21053;50.848;4.652;2024-02-28T06:44:13;3.80;99.90
34837;DHT22;21053;50.848;4.652;2024-02-28T06:46:41;2.20;99.90
34837;DHT22;21053;50.848;4.652;2024-02-28T06:49:10;2.40;99.90
34837;DHT22;21053;50.848;4.652;2024-02-28T06:51:39;2.60;99.90
34837;DHT22;21053;50.848;4.652;2024-02-28T06:54:07;2.60;99.90
34837;DHT22;21053;50.848;4.652;2024-02-28T06:56:33;2.70;99.90
34837;DHT22;21053;50.848;4.652;2024-02-28T06:59:00;2.90;99.90
34837;DHT22;21053;50.848;4.652;2024-02-28T07:01:27;3.00;99.90
34837;DHT22;21053;50.848;4.652;2024-02-28T07:03:56;3.20;99.90
34837;DHT22;21053;50.848;4.652;2024-02-28T07:06:25;3.30;99.90
34837;DHT22;21053;50.848;4.652;2024-02-28T07:08:51;3.50;99.90
34837;DHT22;21053;50.848;4.652;2024-02-28T07:11:19;3.60;99.90
34837;DHT22;21053;50.848;4.652;2024-02-28T07:13:48;3.60;99.90
34837;DHT22;21053;50.848;4.652;2024-02-28T07:16:15;3.70;99.90
34837;DHT22;21053;50.848;4.652;2024-02-28T07:18:40;3.70;99.90
34837;DHT22;21053;50.848;4.652;2024-02-28T07:21:07;3.70;99.90
34837;DHT22;21053;50.848;4.652;2024-02-28T07:23:40;3.70;99.90
34837;DHT22;21053;50.848;4.652;2024-02-28T07:26:17;3.80;99.90
34837;DHT22;21053;50.848;4.652;2024-02-28T07:28:44;3.80;99.90
34837;DHT22;21053;50.848;4.652;2024-02-28T07:31:17;3.90;99.90
34837;DHT22;21053;50.848;4.652;2024-02-28T07:33:45;4.10;99.90
34837;DHT22;21053;50.848;4.652;2024-02-28T07:36:14;4.10;99.90
34837;DHT22;21053;50.848;4.652;2024-02-28T07:38:43;4.20;99.90
34837;DHT22;21053;50.848;4.652;2024-02-28T07:41:11;4.30;99.90
34837;DHT22;21053;50.848;4.652;2024-02-28T07:43:37;4.40;99.90
34837;DHT22;21053;50.848;4.652;2024-02-28T07:46:23;4.40;99.90
34837;DHT22;21053;50.848;4.652;2024-02-28T07:48:51;4.50;99.90
34837;DHT22;21053;50.848;4.652;2024-02-28T07:51:25;4.40;99.90
34837;DHT22;21053;50.848;4.652;2024-02-28T07:53:51;4.40;99.90
34837;DHT22;21053;50.848;4.652;2024-02-28T07:56:22;4.50;99.90
34837;DHT22;21053;50.848;4.652;2024-02-28T07:58:48;4.60;99.90
34837;DHT22;21053;50.848;4.652;2024-02-28T08:01:16;4.70;99.90
34837;DHT22;21053;50.848;4.652;2024-02-28T08:03:47;4.80;99.90
34837;DHT22;21053;50.848;4.652;2024-02-28T08:06:16;4.80;99.90
34837;DHT22;21053;50.848;4.652;2024-02-28T08:08:47;4.90;99.90
34837;DHT22;21053;50.848;4.652;2024-02-28T08:11:13;5.00;99.90
34837;DHT22;21053;50.848;4.652;2024-02-28T08:13:41;5.10;99.90
34837;DHT22;21053;50.848;4.652;2024-02-28T08:16:10;5.10;99.90
34837;DHT22;21053;50.848;4.652;2024-02-28T08:18:36;5.20;99.90
34837;DHT22;21053;50.848;4.652;2024-02-28T08:21:04;5.40;99.90
34837;DHT22;21053;50.848;4.652;2024-02-28T08:23:32;5.50;99.90
34837;DHT22;21053;50.848;4.652;2024-02-28T08:25:59;5.80;99.90
34837;DHT22;21053;50.848;4.652;2024-02-28T08:28:28;5.90;99.90
34837;DHT22;21053;50.848;4.652;2024-02-28T08:30:58;6.10;99.90
34837;DHT22;21053;50.848;4.652;2024-02-28T08:33:25;6.20;99.90
34837;DHT22;21053;50.848;4.652;2024-02-28T08:35:50;6.40;99.90
34837;DHT22;21053;50.848;4.652;2024-02-28T08:38:24;6.70;99.90
34837;DHT22;21053;50.848;4.652;2024-02-28T08:40:50;7.00;99.90
34837;DHT22;21053;50.848;4.652;2024-02-28T08:43:19;7.20;99.90
34837;DHT22;21053;50.848;4.652;2024-02-28T08:45:48;7.20;99.90
34837;DHT22;21053;50.848;4.652;2024-02-28T08:48:17;7.40;99.90
34837;DHT22;21053;50.848;4.652;2024-02-28T08:50:45;7.30;99.90
34837;DHT22;21053;50.848;4.652;2024-02-28T08:53:12;7.50;99.90
34837;DHT22;21053;50.848;4.652;2024-02-28T08:55:38;7.70;99.90
34837;DHT22;21053;50.848;4.652;2024-02-28T08:58:05;7.80;99.90
34837;DHT22;21053;50.848;4.652;2024-02-28T09:00:34;8.00;99.90
34837;DHT22;21053;50.848;4.652;2024-02-28T09:03:00;8.20;99.90
34837;DHT22;21053;50.848;4.652;2024-02-28T09:05:25;8.10;99.90
34837;DHT22;21053;50.848;4.652;2024-02-28T09:07:57;8.10;99.90
34837;DHT22;21053;50.848;4.652;2024-02-28T09:10:23;7.90;99.90
34837;DHT22;21053;50.848;4.652;2024-02-28T09:12:52;7.70;99.90
34837;DHT22;21053;50.848;4.652;2024-02-28T09:15:19;7.60;99.90
34837;DHT22;21053;50.848;4.652;2024-02-28T09:17:46;7.70;99.90
34837;DHT22;21053;50.848;4.652;2024-02-28T09:20:11;7.70;99.90
34837;DHT22;21053;50.848;4.652;2024-02-28T09:22:38;7.80;99.90
34837;DHT22;21053;50.848;4.652;2024-02-28T09:25:07;7.80;99.90
34837;DHT22;21053;50.848;4.652;2024-02-28T09:27:37;7.90;99.90
34837;DHT22;21053;50.848;4.652;2024-02-28T09:30:06;7.80;99.90
34837;DHT22;21053;50.848;4.652;2024-02-28T09:32:34;7.90;99.90
34837;DHT22;21053;50.848;4.652;2024-02-28T09:35:00;7.90;99.90
34837;DHT22;21053;50.848;4.652;2024-02-28T09:37:26;8.00;99.90
34837;DHT22;21053;50.848;4.652;2024-02-28T09:39:55;8.20;99.90
34837;DHT22;21053;50.848;4.652;2024-02-28T09:42:24;8.20;99.90
34837;DHT22;21053;50.848;4.652;2024-02-28T09:44:51;8.40;99.90
34837;DHT22;21053;50.848;4.652;2024-02-28T09:47:20;8.50;99.90
34837;DHT22;21053;50.848;4.652;2024-02-28T09:49:50;8.60;99.90
34837;DHT22;21053;50.848;4.652;2024-02-28T09:54:58;8.50;99.90
34837;DHT22;21053;50.848;4.652;2024-02-28T09:57:24;8.50;99.90
34837;DHT22;21053;50.848;4.652;2024-02-28T09:59:58;8.60;99.90
34837;DHT22;21053;50.848;4.652;2024-02-28T10:02:32;8.50;99.90
34837;DHT22;21053;50.848;4.652;2024-02-28T10:05:02;8.60;99.90
34837;DHT22;21053;50.848;4.652;2024-02-28T10:07:32;8.70;99.90
34837;DHT22;21053;50.848;4.652;2024-02-28T10:09:58;8.90;99.90
34837;DHT22;21053;50.848;4.652;2024-02-28T10:12:25;9.00;99.90
34837;DHT22;21053;50.848;4.652;2024-02-28T10:14:54;9.20;99.90
34837;DHT22;21053;50.848;4.652;2024-02-28T10:17:23;9.10;99.90
34837;DHT22;21053;50.848;4.652;2024-02-28T10:19:59;9.20;99.90
34837;DHT22;21053;50.848;4.652;2024-02-28T10:22:25;9.20;99.90
34837;DHT22;21053;50.848;4.652;2024-02-28T10:24:57;9.10;99.90
34837;DHT22;21053;50.848;4.652;2024-02-28T10:27:25;9.10;99.90
34837;DHT22;21053;50.848;4.652;2024-02-28T10:29:54;9.20;99.90
34837;DHT22;21053;50.848;4.652;2024-02-28T10:32:23;9.30;99.90
34837;DHT22;21053;50.848;4.652;2024-02-28T10:34:51;9.30;99.90
34837;DHT22;21053;50.848;4.652;2024-02-28T10:37:21;9.30;99.90
34837;DHT22;21053;50.848;4.652;2024-02-28T10:39:52;9.50;99.90
34837;DHT22;21053;50.848;4.652;2024-02-28T10:42:29;9.90;99.90
34837;DHT22;21053;50.848;4.652;2024-02-28T10:44:57;10.20;99.90
34837;DHT22;21053;50.848;4.652;2024-02-28T10:47:30;10.50;99.90
34837;DHT22;21053;50.848;4.652;2024-02-28T10:49:56;10.80;99.90
34837;DHT22;21053;50.848;4.652;2024-02-28T10:52:25;10.90;99.90
34837;DHT22;21053;50.848;4.652;2024-02-28T10:54:54;11.10;99.90
34837;DHT22;21053;50.848;4.652;2024-02-28T10:57:29;11.30;99.90
34837;DHT22;21053;50.848;4.652;2024-02-28T10:59:59;11.70;99.90
34837;DHT22;21053;50.848;4.652;2024-02-28T11:02:28;11.70;99.90
34837;DHT22;21053;50.848;4.652;2024-02-28T11:05:00;11.50;99.90
34837;DHT22;21053;50.848;4.652;2024-02-28T11:07:30;11.60;99.90
34837;DHT22;21053;50.848;4.652;2024-02-28T11:10:07;11.60;99.90
34837;DHT22;21053;50.848;4.652;2024-02-28T11:12:33;11.60;99.90
34837;DHT22;21053;50.848;4.652;2024-02-28T11:15:03;11.50;99.90
34837;DHT22;21053;50.848;4.652;2024-02-28T11:17:33;11.40;99.90
34837;DHT22;21053;50.848;4.652;2024-02-28T11:20:11;11.40;99.90
34837;DHT22;21053;50.848;4.652;2024-02-28T11:22:43;11.40;99.90
34837;DHT22;21053;50.848;4.652;2024-02-28T11:25:12;11.70;99.90
34837;DHT22;21053;50.848;4.652;2024-02-28T11:27:48;12.00;99.90
34837;DHT22;21053;50.848;4.652;2024-02-28T11:30:16;12.20;99.90
34837;DHT22;21053;50.848;4.652;2024-02-28T11:32:45;12.10;99.90
34837;DHT22;21053;50.848;4.652;2024-02-28T11:35:14;12.00;99.90
34837;DHT22;21053;50.848;4.652;2024-02-28T11:37:44;11.90;99.90
34837;DHT22;21053;50.848;4.652;2024-02-28T11:40:10;11.70;99.90
34837;DHT22;21053;50.848;4.652;2024-02-28T11:42:38;11.60;99.90
34837;DHT22;21053;50.848;4.652;2024-02-28T11:45:11;11.30;99.90
34837;DHT22;21053;50.848;4.652;2024-02-28T11:47:39;11.20;99.90
34837;DHT22;21053;50.848;4.652;2024-02-28T11:50:07;11.40;99.90
34837;DHT22;21053;50.848;4.652;2024-02-28T11:52:33;11.50;99.90
34837;DHT22;21053;50.848;4.652;2024-02-28T11:54:59;11.30;99.90
34837;DHT22;21053;50.848;4.652;2024-02-28T11:57:26;11.40;99.90
34837;DHT22;21053;50.848;4.652;2024-02-28T11:59:54;11.40;99.90
34837;DHT22;21053;50.848;4.652;2024-02-28T12:02:23;11.40;99.90
34837;DHT22;21053;50.848;4.652;2024-02-28T12:04:59;11.40;99.90
34837;DHT22;21053;50.848;4.652;2024-02-28T12:07:26;11.50;99.90
34837;DHT22;21053;50.848;4.652;2024-02-28T12:09:55;11.40;99.90
34837;DHT22;21053;50.848;4.652;2024-02-28T12:12:21;11.30;99.90
34837;DHT22;21053;50.848;4.652;2024-02-28T12:14:50;11.20;99.90
34837;DHT22;21053;50.848;4.652;2024-02-28T12:17:25;11.30;99.90
34837;DHT22;21053;50.848;4.652;2024-02-28T12:19:54;11.30;99.90
34837;DHT22;21053;50.848;4.652;2024-02-28T12:22:23;11.30;99.90
34837;DHT22;21053;50.848;4.652;2024-02-28T12:24:52;11.40;99.90
34837;DHT22;21053;50.848;4.652;2024-02-28T12:27:19;11.30;99.90
34837;DHT22;21053;50.848;4.652;2024-02-28T12:29:48;11.30;99.90
34837;DHT22;21053;50.848;4.652;2024-02-28T12:32:17;11.50;99.90
34837;DHT22;21053;50.848;4.652;2024-02-28T12:34:44;11.30;99.90
34837;DHT22;21053;50.848;4.652;2024-02-28T12:39:38;11.30;99.90
34837;DHT22;21053;50.848;4.652;2024-02-28T12:42:07;11.40;99.90
34837;DHT22;21053;50.848;4.652;2024-02-28T12:44:32;11.60;99.90
34837;DHT22;21053;50.848;4.652;2024-02-28T12:46:59;11.70;99.90
34837;DHT22;21053;50.848;4.652;2024-02-28T12:49:28;11.80;99.90
34837;DHT22;21053;50.848;4.652;2024-02-28T12:51:56;12.10;99.90
34837;DHT22;21053;50.848;4.652;2024-02-28T12:54:23;12.20;99.90
34837;DHT22;21053;50.848;4.652;2024-02-28T12:56:51;12.60;99.90
34837;DHT22;21053;50.848;4.652;2024-02-28T12:59:20;12.80;99.90
34837;DHT22;21053;50.848;4.652;2024-02-28T13:01:49;13.00;99.90
34837;DHT22;21053;50.848;4.652;2024-02-28T13:04:16;13.00;99.90
34837;DHT22;21053;50.848;4.652;2024-02-28T13:06:45;13.00;99.90
34837;DHT22;21053;50.848;4.652;2024-02-28T13:09:13;12.70;99.90
34837;DHT22;21053;50.848;4.652;2024-02-28T13:11:40;12.90;99.90
34837;DHT22;21053;50.848;4.652;2024-02-28T13:14:09;12.70;99.90
34837;DHT22;21053;50.848;4.652;2024-02-28T13:16:39;12.70;99.90
34837;DHT22;21053;50.848;4.652;2024-02-28T13:19:07;12.50;99.90
34837;DHT22;21053;50.848;4.652;2024-02-28T13:21:36;12.60;99.90
34837;DHT22;21053;50.848;4.652;2024-02-28T13:24:05;12.40;99.90
34837;DHT22;21053;50.848;4.652;2024-02-28T13:26:34;12.50;99.90
34837;DHT22;21053;50.848;4.652;2024-02-28T13:29:03;12.40;99.90
34837;DHT22;21053;50.848;4.652;2024-02-28T13:31:31;12.30;99.90
34837;DHT22;21053;50.848;4.652;2024-02-28T13:34:01;12.20;99.90
34837;DHT22;21053;50.848;4.652;2024-02-28T13:36:29;12.20;99.90
34837;DHT22;21053;50.848;4.652;2024-02-28T13:38:59;12.20;99.90
34837;DHT22;21053;50.848;4.652;2024-02-28T13:41:26;12.10;99.90
34837;DHT22;21053;50.848;4.652;2024-02-28T13:43:52;12.10;99.90
34837;DHT22;21053;50.848;4.652;2024-02-28T13:46:17;12.00;99.90
34837;DHT22;21053;50.848;4.652;2024-02-28T13:48:47;12.00;99.90
34837;DHT22;21053;50.848;4.652;2024-02-28T13:51:14;12.20;99.90
34837;DHT22;21053;50.848;4.652;2024-02-28T13:53:41;12.20;99.90
34837;DHT22;21053;50.848;4.652;2024-02-28T13:56:10;12.20;99.90
34837;DHT22;21053;50.848;4.652;2024-02-28T13:58:43;12.20;99.90
34837;DHT22;21053;50.848;4.652;2024-02-28T14:01:15;12.20;99.90
34837;DHT22;21053;50.848;4.652;2024-02-28T14:03:42;12.40;99.90
34837;DHT22;21053;50.848;4.652;2024-02-28T14:06:11;12.70;99.90
34837;DHT22;21053;50.848;4.652;2024-02-28T14:08:39;13.00;99.90
34837;DHT22;21053;50.848;4.652;2024-02-28T14:11:11;13.10;99.90
34837;DHT22;21053;50.848;4.652;2024-02-28T14:13:43;13.30;99.90
34837;DHT22;21053;50.848;4.652;2024-02-28T14:16:09;13.50;99.90
34837;DHT22;21053;50.848;4.652;2024-02-28T14:18:34;13.70;99.90
34837;DHT22;21053;50.848;4.652;2024-02-28T14:21:02;13.70;99.90
34837;DHT22;21053;50.848;4.652;2024-02-28T14:23:28;13.60;99.90
34837;DHT22;21053;50.848;4.652;2024-02-28T14:25:56;13.60;99.90
34837;DHT22;21053;50.848;4.652;2024-02-28T14:28:24;13.70;99.90
34837;DHT22;21053;50.848;4.652;2024-02-28T14:30:52;13.70;99.90
34837;DHT22;21053;50.848;4.652;2024-02-28T14:33:19;13.40;99.90
34837;DHT22;21053;50.848;4.652;2024-02-28T14:35:46;13.20;99.90
34837;DHT22;21053;50.848;4.652;2024-02-28T14:38:15;13.20;99.90
34837;DHT22;21053;50.848;4.652;2024-02-28T14:40:43;13.20;99.90
34837;DHT22;21053;50.848;4.652;2024-02-28T14:43:09;13.20;99.90
34837;DHT22;21053;50.848;4.652;2024-02-28T14:45:34;13.30;99.90
34837;DHT22;21053;50.848;4.652;2024-02-28T14:48:34;13.10;99.90
34837;DHT22;21053;50.848;4.652;2024-02-28T14:51:02;12.90;99.90
34837;DHT22;21053;50.848;4.652;2024-02-28T14:53:29;13.00;99.90
34837;DHT22;21053;50.848;4.652;2024-02-28T14:55:55;13.00;99.90
34837;DHT22;21053;50.848;4.652;2024-02-28T14:58:27;12.90;99.90
34837;DHT22;21053;50.848;4.652;2024-02-28T15:00:56;12.70;99.90
34837;DHT22;21053;50.848;4.652;2024-02-28T15:03:25;12.70;99.90
34837;DHT22;21053;50.848;4.652;2024-02-28T15:05:51;12.70;99.90
34837;DHT22;21053;50.848;4.652;2024-02-28T15:08:18;12.70;99.90
34837;DHT22;21053;50.848;4.652;2024-02-28T15:10:47;12.70;99.90
34837;DHT22;21053;50.848;4.652;2024-02-28T15:13:13;12.50;99.90
34837;DHT22;21053;50.848;4.652;2024-02-28T15:15:39;12.50;99.90
34837;DHT22;21053;50.848;4.652;2024-02-28T15:18:08;12.50;99.90
34837;DHT22;21053;50.848;4.652;2024-02-28T15:20:40;12.40;99.90
34837;DHT22;21053;50.848;4.652;2024-02-28T15:23:09;12.50;99.90
34837;DHT22;21053;50.848;4.652;2024-02-28T15:25:34;12.60;99.90
34837;DHT22;21053;50.848;4.652;2024-02-28T15:28:01;12.50;99.90
34837;DHT22;21053;50.848;4.652;2024-02-28T15:30:30;12.50;99.90
34837;DHT22;21053;50.848;4.652;2024-02-28T15:32:58;12.40;99.90
34837;DHT22;21053;50.848;4.652;2024-02-28T15:35:27;12.30;99.90
34837;DHT22;21053;50.848;4.652;2024-02-28T15:37:55;12.20;99.90
34837;DHT22;21053;50.848;4.652;2024-02-28T15:40:24;12.30;99.90
34837;DHT22;21053;50.848;4.652;2024-02-28T15:42:51;12.30;99.90
34837;DHT22;21053;50.848;4.652;2024-02-28T15:45:20;12.20;99.90
34837;DHT22;21053;50.848;4.652;2024-02-28T15:47:49;12.20;99.90
34837;DHT22;21053;50.848;4.652;2024-02-28T15:50:23;12.10;99.90
34837;DHT22;21053;50.848;4.652;2024-02-28T15:52:51;12.20;99.90
34837;DHT22;21053;50.848;4.652;2024-02-28T15:55:18;12.20;99.90
34837;DHT22;21053;50.848;4.652;2024-02-28T15:57:46;12.10;99.90
34837;DHT22;21053;50.848;4.652;2024-02-28T16:00:13;12.10;99.90